sensor_id;sensor_type;location;lat;lon;timestamp;pressure;altitude;pressure_sealevel;temperature;humidity
41234;BME280;26968;42.686;23.352;2022-09-09T00:04:35;95339.75;;;20.22;56.14
41234;BME280;26968;42.686;23.352;2022-09-09T00:08:02;95472.84;;;21.04;56.34
41234;BME280;26968;42.686;23.352;2022-09-09T00:12:51;95367.03;;;20.21;56.65
41234;BME280;26968;42.686;23.352;2022-09-09T00:15:25;95471.00;;;20.75;57.35
41234;BME280;26968;42.686;23.352;2022-09-09T00:18:13;95386.47;;;20.26;57.26
41234;BME280;26968;42.686;23.352;2022-09-09T00:23:14;95468.94;;;20.81;57.40
41234;BME280;26968;42.686;23.352;2022-09-09T00:28:40;95451.09;;;20.68;57.91
41234;BME280;26968;42.686;23.352;2022-09-09T00:31:13;95191.53;;;19.11;57.78
41234;BME280;26968;42.686;23.352;2022-09-09T00:33:40;95343.59;;;20.00;58.21
41234;BME280;26968;42.686;23.352;2022-09-09T00:36:13;95446.31;;;20.53;58.45
41234;BME280;26968;42.686;23.352;2022-09-09T00:38:45;95399.16;;;20.26;58.63
41234;BME280;26968;42.686;23.352;2022-09-09T00:41:38;95347.06;;;19.59;59.81
41234;BME280;26968;42.686;23.352;2022-09-09T00:47:33;95424.75;;;20.32;59.40
41234;BME280;26968;42.686;23.352;2022-09-09T00:55:41;95286.47;;;19.53;58.82
41234;BME280;26968;42.686;23.352;2022-09-09T00:58:10;95432.22;;;20.56;58.89
41234;BME280;26968;42.686;23.352;2022-09-09T01:00:52;95435.91;;;20.51;59.00
41234;BME280;26968;42.686;23.352;2022-09-09T01:03:36;95387.34;;;20.18;59.03
41234;BME280;26968;42.686;23.352;2022-09-09T01:06:16;95438.50;;;20.39;59.54
41234;BME280;26968;42.686;23.352;2022-09-09T01:11:40;95322.38;;;19.57;59.60
41234;BME280;26968;42.686;23.352;2022-09-09T01:17:01;95386.34;;;20.02;59.66
41234;BME280;26968;42.686;23.352;2022-09-09T01:25:06;95437.94;;;20.33;59.73
41234;BME280;26968;42.686;23.352;2022-09-09T01:27:40;95437.88;;;20.42;59.57
41234;BME280;26968;42.686;23.352;2022-09-09T01:30:11;95347.44;;;19.70;59.83
41234;BME280;26968;42.686;23.352;2022-09-09T01:32:45;95438.72;;;20.34;59.68
41234;BME280;26968;42.686;23.352;2022-09-09T01:35:36;95374.25;;;19.87;59.76
41234;BME280;26968;42.686;23.352;2022-09-09T01:38:03;95363.44;;;19.75;59.71
41234;BME280;26968;42.686;23.352;2022-09-09T01:40:29;95387.91;;;19.82;59.95
41234;BME280;26968;42.686;23.352;2022-09-09T01:42:55;95197.81;;;18.65;59.68
41234;BME280;26968;42.686;23.352;2022-09-09T01:45:22;95337.47;;;19.50;59.72
41234;BME280;26968;42.686;23.352;2022-09-09T01:47:48;95317.75;;;19.37;60.29
41234;BME280;26968;42.686;23.352;2022-09-09T01:50:15;95413.25;;;20.02;59.90
41234;BME280;26968;42.686;23.352;2022-09-09T01:52:44;95405.81;;;19.99;59.72
41234;BME280;26968;42.686;23.352;2022-09-09T01:55:11;95440.59;;;20.13;59.92
41234;BME280;26968;42.686;23.352;2022-09-09T01:57:48;95395.28;;;19.64;60.73
41234;BME280;26968;42.686;23.352;2022-09-09T02:00:16;95153.28;;;18.18;60.18
41234;BME280;26968;42.686;23.352;2022-09-09T02:03:20;95457.19;;;20.15;60.26
41234;BME280;26968;42.686;23.352;2022-09-09T02:08:36;95455.75;;;19.96;60.98
41234;BME280;26968;42.686;23.352;2022-09-09T02:11:12;95450.16;;;20.01;60.72
41234;BME280;26968;42.686;23.352;2022-09-09T02:13:39;95196.19;;;18.26;61.14
41234;BME280;26968;42.686;23.352;2022-09-09T02:18:57;95426.69;;;19.81;61.34
41234;BME280;26968;42.686;23.352;2022-09-09T02:21:28;95434.63;;;19.78;61.63
41234;BME280;26968;42.686;23.352;2022-09-09T02:23:56;95421.31;;;19.81;61.32
41234;BME280;26968;42.686;23.352;2022-09-09T02:26:25;95359.50;;;19.35;61.44
41234;BME280;26968;42.686;23.352;2022-09-09T02:28:54;95323.75;;;19.05;61.52
41234;BME280;26968;42.686;23.352;2022-09-09T02:31:22;95392.84;;;19.42;61.52
41234;BME280;26968;42.686;23.352;2022-09-09T02:33:58;95427.78;;;19.59;61.65
41234;BME280;26968;42.686;23.352;2022-09-09T02:36:29;95402.81;;;19.50;61.29
41234;BME280;26968;42.686;23.352;2022-09-09T02:38:56;95301.84;;;18.85;61.26
41234;BME280;26968;42.686;23.352;2022-09-09T02:41:42;95442.38;;;19.79;61.17
41234;BME280;26968;42.686;23.352;2022-09-09T02:44:13;95447.41;;;19.89;61.16
41234;BME280;26968;42.686;23.352;2022-09-09T02:49:52;95456.09;;;19.86;61.09
41234;BME280;26968;42.686;23.352;2022-09-09T02:55:55;95387.50;;;19.34;60.61
41234;BME280;26968;42.686;23.352;2022-09-09T02:58:23;95409.09;;;19.46;60.72
41234;BME280;26968;42.686;23.352;2022-09-09T03:00:50;95273.81;;;18.66;60.95
41234;BME280;26968;42.686;23.352;2022-09-09T03:03:18;95449.19;;;19.77;61.00
41234;BME280;26968;42.686;23.352;2022-09-09T03:05:45;95146.47;;;17.73;60.88
41234;BME280;26968;42.686;23.352;2022-09-09T03:08:11;95454.13;;;19.28;61.98
41234;BME280;26968;42.686;23.352;2022-09-09T03:10:38;95367.66;;;18.45;62.10
41234;BME280;26968;42.686;23.352;2022-09-09T03:13:04;95341.44;;;18.68;61.20
41234;BME280;26968;42.686;23.352;2022-09-09T03:15:31;95352.75;;;18.82;61.07
41234;BME280;26968;42.686;23.352;2022-09-09T03:17:58;95411.94;;;19.20;61.20
41234;BME280;26968;42.686;23.352;2022-09-09T03:20:25;95327.22;;;18.67;60.99
41234;BME280;26968;42.686;23.352;2022-09-09T03:22:52;95394.72;;;19.12;60.96
41234;BME280;26968;42.686;23.352;2022-09-09T03:25:18;95399.91;;;19.17;60.77
41234;BME280;26968;42.686;23.352;2022-09-09T03:27:44;95456.28;;;19.52;60.93
41234;BME280;26968;42.686;23.352;2022-09-09T03:30:10;95049.59;;;16.77;61.45
41234;BME280;26968;42.686;23.352;2022-09-09T03:32:36;95349.31;;;18.73;61.31
41234;BME280;26968;42.686;23.352;2022-09-09T03:35:01;95465.00;;;19.40;61.72
41234;BME280;26968;42.686;23.352;2022-09-09T03:37:27;95342.56;;;18.58;62.03
41234;BME280;26968;42.686;23.352;2022-09-09T03:39:52;95341.56;;;18.71;61.51
41234;BME280;26968;42.686;23.352;2022-09-09T03:42:19;95015.34;;;16.56;61.70
41234;BME280;26968;42.686;23.352;2022-09-09T03:44:48;95398.19;;;19.13;61.55
41234;BME280;26968;42.686;23.352;2022-09-09T03:47:19;95451.56;;;19.32;61.92
41234;BME280;26968;42.686;23.352;2022-09-09T03:49:49;95439.31;;;19.13;62.30
41234;BME280;26968;42.686;23.352;2022-09-09T03:52:15;95128.66;;;17.17;61.97
41234;BME280;26968;42.686;23.352;2022-09-09T03:54:41;95427.31;;;19.02;62.40
41234;BME280;26968;42.686;23.352;2022-09-09T03:57:08;95405.84;;;18.85;62.21
41234;BME280;26968;42.686;23.352;2022-09-09T03:59:34;95377.28;;;18.72;62.25
41234;BME280;26968;42.686;23.352;2022-09-09T04:02:00;95475.94;;;19.26;62.24
41234;BME280;26968;42.686;23.352;2022-09-09T04:04:26;95423.91;;;18.67;63.29
41234;BME280;26968;42.686;23.352;2022-09-09T04:06:52;95476.66;;;19.06;62.97
41234;BME280;26968;42.686;23.352;2022-09-09T04:09:18;95137.47;;;17.09;62.34
41234;BME280;26968;42.686;23.352;2022-09-09T04:11:43;95422.75;;;18.85;62.42
41234;BME280;26968;42.686;23.352;2022-09-09T04:14:09;95369.06;;;18.51;62.50
41234;BME280;26968;42.686;23.352;2022-09-09T04:16:35;95107.41;;;16.78;62.44
41234;BME280;26968;42.686;23.352;2022-09-09T04:19:03;95041.66;;;16.54;62.31
41234;BME280;26968;42.686;23.352;2022-09-09T04:21:30;95284.97;;;18.12;62.19
41234;BME280;26968;42.686;23.352;2022-09-09T04:23:55;95418.97;;;18.86;62.52
41234;BME280;26968;42.686;23.352;2022-09-09T04:26:21;95462.41;;;19.14;62.73
41234;BME280;26968;42.686;23.352;2022-09-09T04:28:47;95389.78;;;18.68;63.00
41234;BME280;26968;42.686;23.352;2022-09-09T04:31:18;95457.94;;;19.18;62.82
41234;BME280;26968;42.686;23.352;2022-09-09T04:33:45;95215.72;;;17.54;62.42
41234;BME280;26968;42.686;23.352;2022-09-09T04:36:12;95422.25;;;18.92;61.70
41234;BME280;26968;42.686;23.352;2022-09-09T04:38:38;95455.88;;;19.15;61.57
41234;BME280;26968;42.686;23.352;2022-09-09T04:41:05;95204.66;;;17.47;60.68
41234;BME280;26968;42.686;23.352;2022-09-09T04:43:30;95408.91;;;18.66;60.81
41234;BME280;26968;42.686;23.352;2022-09-09T04:45:56;95366.72;;;18.49;60.88
41234;BME280;26968;42.686;23.352;2022-09-09T04:48:23;95371.75;;;18.51;60.42
41234;BME280;26968;42.686;23.352;2022-09-09T04:51:03;95367.53;;;18.59;60.46
41234;BME280;26968;42.686;23.352;2022-09-09T04:53:30;95125.97;;;17.17;59.96
41234;BME280;26968;42.686;23.352;2022-09-09T04:58:30;95360.34;;;18.80;59.64
41234;BME280;26968;42.686;23.352;2022-09-09T05:01:03;95334.59;;;18.70;59.97
41234;BME280;26968;42.686;23.352;2022-09-09T05:03:28;95441.09;;;19.39;59.96
41234;BME280;26968;42.686;23.352;2022-09-09T05:06:06;95339.31;;;18.82;59.37
41234;BME280;26968;42.686;23.352;2022-09-09T05:08:34;95411.22;;;19.32;59.05
41234;BME280;26968;42.686;23.352;2022-09-09T05:10:59;95375.06;;;19.20;58.50
41234;BME280;26968;42.686;23.352;2022-09-09T05:13:28;95385.78;;;19.29;58.70
41234;BME280;26968;42.686;23.352;2022-09-09T05:15:54;95442.56;;;19.74;58.41
41234;BME280;26968;42.686;23.352;2022-09-09T05:18:20;95324.38;;;19.02;58.07
41234;BME280;26968;42.686;23.352;2022-09-09T05:20:48;95213.69;;;18.32;58.42
41234;BME280;26968;42.686;23.352;2022-09-09T05:23:13;95296.69;;;18.72;58.19
41234;BME280;26968;42.686;23.352;2022-09-09T05:25:39;95387.94;;;19.53;57.68
41234;BME280;26968;42.686;23.352;2022-09-09T05:28:09;95305.88;;;19.00;57.68
41234;BME280;26968;42.686;23.352;2022-09-09T05:30:36;95318.00;;;19.15;57.73
41234;BME280;26968;42.686;23.352;2022-09-09T05:33:01;95315.78;;;19.17;57.64
41234;BME280;26968;42.686;23.352;2022-09-09T05:35:27;95164.72;;;18.35;57.51
41234;BME280;26968;42.686;23.352;2022-09-09T05:37:52;95247.75;;;18.96;57.05
41234;BME280;26968;42.686;23.352;2022-09-09T05:40:18;95176.56;;;18.34;56.83
41234;BME280;26968;42.686;23.352;2022-09-09T05:42:43;95438.56;;;20.10;56.81
41234;BME280;26968;42.686;23.352;2022-09-09T05:45:09;95217.44;;;18.48;57.34
41234;BME280;26968;42.686;23.352;2022-09-09T05:47:35;94842.38;;;15.92;57.41
41234;BME280;26968;42.686;23.352;2022-09-09T05:50:03;94844.75;;;16.02;57.18
41234;BME280;26968;42.686;23.352;2022-09-09T05:52:29;95401.78;;;19.63;57.05
41234;BME280;26968;42.686;23.352;2022-09-09T05:54:55;95393.81;;;19.76;56.86
41234;BME280;26968;42.686;23.352;2022-09-09T05:57:22;95177.81;;;18.45;56.52
41234;BME280;26968;42.686;23.352;2022-09-09T05:59:47;95385.28;;;19.94;56.12
41234;BME280;26968;42.686;23.352;2022-09-09T06:02:13;95022.97;;;17.61;55.56
41234;BME280;26968;42.686;23.352;2022-09-09T06:04:42;95458.06;;;20.27;55.07
41234;BME280;26968;42.686;23.352;2022-09-09T06:07:08;95266.91;;;19.15;54.89
41234;BME280;26968;42.686;23.352;2022-09-09T06:09:36;95473.78;;;20.46;54.79
41234;BME280;26968;42.686;23.352;2022-09-09T06:12:02;95210.53;;;18.77;55.11
41234;BME280;26968;42.686;23.352;2022-09-09T06:14:39;94908.22;;;17.00;54.15
41234;BME280;26968;42.686;23.352;2022-09-09T06:17:05;95182.56;;;18.78;53.96
41234;BME280;26968;42.686;23.352;2022-09-09T06:19:31;95128.28;;;18.55;53.91
41234;BME280;26968;42.686;23.352;2022-09-09T06:22:18;94899.50;;;17.11;53.68
41234;BME280;26968;42.686;23.352;2022-09-09T06:24:44;95452.63;;;20.77;52.90
41234;BME280;26968;42.686;23.352;2022-09-09T06:27:10;95458.03;;;20.57;52.72
41234;BME280;26968;42.686;23.352;2022-09-09T06:29:36;95287.34;;;19.66;52.30
41234;BME280;26968;42.686;23.352;2022-09-09T06:32:02;95104.56;;;18.36;52.84
41234;BME280;26968;42.686;23.352;2022-09-09T06:34:28;95326.44;;;19.63;53.71
41234;BME280;26968;42.686;23.352;2022-09-09T06:36:54;95048.00;;;18.12;53.27
41234;BME280;26968;42.686;23.352;2022-09-09T06:39:23;95439.47;;;20.76;53.22
41234;BME280;26968;42.686;23.352;2022-09-09T06:41:48;95446.06;;;20.99;52.49
41234;BME280;26968;42.686;23.352;2022-09-09T06:44:18;94836.78;;;17.12;51.96
41234;BME280;26968;42.686;23.352;2022-09-09T06:46:44;95460.50;;;21.15;52.11
41234;BME280;26968;42.686;23.352;2022-09-09T06:49:13;95194.28;;;19.44;51.86
41234;BME280;26968;42.686;23.352;2022-09-09T06:52:10;95455.69;;;21.21;51.49
41234;BME280;26968;42.686;23.352;2022-09-09T06:54:41;95050.13;;;18.57;51.27
41234;BME280;26968;42.686;23.352;2022-09-09T06:57:07;95343.78;;;20.37;50.62
41234;BME280;26968;42.686;23.352;2022-09-09T06:59:33;95465.72;;;21.21;51.25
41234;BME280;26968;42.686;23.352;2022-09-09T07:02:08;95472.63;;;21.42;50.99
41234;BME280;26968;42.686;23.352;2022-09-09T07:04:37;95257.28;;;20.18;50.96
41234;BME280;26968;42.686;23.352;2022-09-09T07:07:09;94907.19;;;17.89;50.03
41234;BME280;26968;42.686;23.352;2022-09-09T07:09:37;95442.13;;;21.30;49.78
41234;BME280;26968;42.686;23.352;2022-09-09T07:12:03;95081.06;;;19.04;49.69
41234;BME280;26968;42.686;23.352;2022-09-09T07:14:34;95093.50;;;19.30;50.06
41234;BME280;26968;42.686;23.352;2022-09-09T07:17:08;95330.00;;;20.84;49.93
41234;BME280;26968;42.686;23.352;2022-09-09T07:19:39;94800.72;;;17.60;49.73
41234;BME280;26968;42.686;23.352;2022-09-09T07:22:11;95481.06;;;21.89;49.79
41234;BME280;26968;42.686;23.352;2022-09-09T07:25:00;95327.13;;;21.13;49.77
41234;BME280;26968;42.686;23.352;2022-09-09T07:27:27;95169.69;;;20.20;49.59
41234;BME280;26968;42.686;23.352;2022-09-09T07:29:53;95354.78;;;21.46;49.16
41234;BME280;26968;42.686;23.352;2022-09-09T07:32:42;95405.81;;;21.76;48.32
41234;BME280;26968;42.686;23.352;2022-09-09T07:35:10;95454.53;;;22.16;48.26
41234;BME280;26968;42.686;23.352;2022-09-09T07:40:41;95171.09;;;20.63;48.00
41234;BME280;26968;42.686;23.352;2022-09-09T07:43:09;95216.88;;;20.99;48.33
41234;BME280;26968;42.686;23.352;2022-09-09T07:45:40;95062.53;;;19.89;48.85
41234;BME280;26968;42.686;23.352;2022-09-09T07:48:49;95160.88;;;20.56;47.48
41234;BME280;26968;42.686;23.352;2022-09-09T07:51:38;95284.44;;;21.39;46.96
41234;BME280;26968;42.686;23.352;2022-09-09T07:54:09;95449.50;;;22.54;46.85
41234;BME280;26968;42.686;23.352;2022-09-09T07:56:37;95373.38;;;22.24;46.83
41234;BME280;26968;42.686;23.352;2022-09-09T07:59:02;95362.81;;;22.19;46.70
41234;BME280;26968;42.686;23.352;2022-09-09T08:01:41;95445.56;;;22.92;46.24
41234;BME280;26968;42.686;23.352;2022-09-09T08:04:16;95379.88;;;22.63;46.34
41234;BME280;26968;42.686;23.352;2022-09-09T08:06:59;95394.94;;;22.92;45.65
41234;BME280;26968;42.686;23.352;2022-09-09T08:09:27;95333.47;;;22.61;45.19
41234;BME280;26968;42.686;23.352;2022-09-09T08:11:54;95407.47;;;23.28;45.58
41234;BME280;26968;42.686;23.352;2022-09-09T08:14:22;95358.16;;;23.03;45.41
41234;BME280;26968;42.686;23.352;2022-09-09T08:16:49;95438.00;;;23.72;45.30
41234;BME280;26968;42.686;23.352;2022-09-09T08:19:15;95280.47;;;22.73;44.54
41234;BME280;26968;42.686;23.352;2022-09-09T08:21:43;95444.88;;;23.85;44.89
41234;BME280;26968;42.686;23.352;2022-09-09T08:27:52;95440.88;;;24.14;44.86
41234;BME280;26968;42.686;23.352;2022-09-09T08:30:21;95163.34;;;22.53;45.02
41234;BME280;26968;42.686;23.352;2022-09-09T08:32:48;95352.69;;;23.82;43.81
41234;BME280;26968;42.686;23.352;2022-09-09T08:35:16;95346.59;;;24.04;43.21
41234;BME280;26968;42.686;23.352;2022-09-09T08:37:42;95133.16;;;22.66;43.46
41234;BME280;26968;42.686;23.352;2022-09-09T08:40:20;95123.25;;;22.70;43.14
41234;BME280;26968;42.686;23.352;2022-09-09T08:42:52;95262.41;;;23.74;43.49
41234;BME280;26968;42.686;23.352;2022-09-09T08:45:36;94998.03;;;22.31;43.15
41234;BME280;26968;42.686;23.352;2022-09-09T08:48:21;95423.50;;;25.08;43.07
41234;BME280;26968;42.686;23.352;2022-09-09T08:51:05;95009.41;;;22.56;42.40
41234;BME280;26968;42.686;23.352;2022-09-09T08:53:44;94851.34;;;21.77;42.79
41234;BME280;26968;42.686;23.352;2022-09-09T08:56:23;95132.28;;;23.67;43.25
41234;BME280;26968;42.686;23.352;2022-09-09T08:58:52;95335.41;;;24.83;42.73
41234;BME280;26968;42.686;23.352;2022-09-09T09:01:42;95117.88;;;23.44;42.83
41234;BME280;26968;42.686;23.352;2022-09-09T09:06:52;95425.16;;;25.58;42.51
41234;BME280;26968;42.686;23.352;2022-09-09T09:12:46;95203.22;;;24.57;42.65
41234;BME280;26968;42.686;23.352;2022-09-09T09:15:20;94986.94;;;23.29;42.30
41234;BME280;26968;42.686;23.352;2022-09-09T09:17:50;94928.13;;;23.03;41.53
41234;BME280;26968;42.686;23.352;2022-09-09T09:24:03;95105.91;;;24.48;40.61
41234;BME280;26968;42.686;23.352;2022-09-09T09:26:35;95360.63;;;26.01;40.54
41234;BME280;26968;42.686;23.352;2022-09-09T09:29:13;95213.53;;;25.16;40.15
41234;BME280;26968;42.686;23.352;2022-09-09T09:31:56;95215.22;;;24.79;41.02
41234;BME280;26968;42.686;23.352;2022-09-09T09:34:29;94950.28;;;23.13;40.97
41234;BME280;26968;42.686;23.352;2022-09-09T09:37:15;94938.22;;;22.68;40.74
41234;BME280;26968;42.686;23.352;2022-09-09T09:39:50;95126.22;;;24.16;40.36
41234;BME280;26968;42.686;23.352;2022-09-09T09:42:20;95235.47;;;25.08;39.93
41234;BME280;26968;42.686;23.352;2022-09-09T09:47:26;94897.09;;;23.20;40.81
41234;BME280;26968;42.686;23.352;2022-09-09T09:50:02;95138.63;;;24.85;39.97
41234;BME280;26968;42.686;23.352;2022-09-09T09:52:57;94934.97;;;23.62;39.66
41234;BME280;26968;42.686;23.352;2022-09-09T09:55:35;94899.25;;;23.53;40.62
41234;BME280;26968;42.686;23.352;2022-09-09T10:01:34;95134.84;;;25.20;40.17
41234;BME280;26968;42.686;23.352;2022-09-09T10:04:25;95380.88;;;26.97;39.88
41234;BME280;26968;42.686;23.352;2022-09-09T10:07:21;94875.22;;;23.74;40.23
41234;BME280;26968;42.686;23.352;2022-09-09T10:10:39;94925.00;;;24.19;39.62
41234;BME280;26968;42.686;23.352;2022-09-09T10:16:35;95404.22;;;27.01;38.92
41234;BME280;26968;42.686;23.352;2022-09-09T10:19:35;94895.53;;;23.88;39.86
41234;BME280;26968;42.686;23.352;2022-09-09T10:22:44;95405.16;;;27.16;39.84
41234;BME280;26968;42.686;23.352;2022-09-09T10:25:31;95407.81;;;26.75;39.53
41234;BME280;26968;42.686;23.352;2022-09-09T10:31:26;95409.34;;;26.43;40.31
41234;BME280;26968;42.686;23.352;2022-09-09T10:34:36;95018.31;;;23.72;42.01
41234;BME280;26968;42.686;23.352;2022-09-09T10:37:47;95406.47;;;26.29;41.45
41234;BME280;26968;42.686;23.352;2022-09-09T10:55:27;94827.84;;;21.77;43.08
41234;BME280;26968;42.686;23.352;2022-09-09T10:59:22;95119.91;;;23.66;42.25
41234;BME280;26968;42.686;23.352;2022-09-09T11:01:37;94884.25;;;21.98;42.63
41234;BME280;26968;42.686;23.352;2022-09-09T11:04:23;94935.78;;;22.44;42.80
41234;BME280;26968;42.686;23.352;2022-09-09T11:06:57;94895.47;;;22.00;43.55
41234;BME280;26968;42.686;23.352;2022-09-09T11:09:32;94892.19;;;22.26;43.11
41234;BME280;26968;42.686;23.352;2022-09-09T11:12:10;95424.19;;;25.47;43.53
41234;BME280;26968;42.686;23.352;2022-09-09T11:15:17;95410.34;;;25.56;43.30
41234;BME280;26968;42.686;23.352;2022-09-09T11:17:49;94907.88;;;22.20;44.05
41234;BME280;26968;42.686;23.352;2022-09-09T11:20:56;94977.91;;;22.64;44.25
41234;BME280;26968;42.686;23.352;2022-09-09T11:23:57;94863.19;;;22.23;44.33
41234;BME280;26968;42.686;23.352;2022-09-09T11:29:41;94835.94;;;21.77;44.32
41234;BME280;26968;42.686;23.352;2022-09-09T11:32:36;95383.16;;;25.52;43.65
41234;BME280;26968;42.686;23.352;2022-09-09T11:35:55;95290.22;;;24.90;44.16
41234;BME280;26968;42.686;23.352;2022-09-09T11:38:47;95059.41;;;23.59;43.95
41234;BME280;26968;42.686;23.352;2022-09-09T11:41:19;95366.88;;;25.56;44.33
41234;BME280;26968;42.686;23.352;2022-09-09T11:49:52;94875.66;;;23.08;43.40
41234;BME280;26968;42.686;23.352;2022-09-09T11:52:47;94754.75;;;22.44;42.93
41234;BME280;26968;42.686;23.352;2022-09-09T11:55:30;95135.91;;;25.12;43.24
41234;BME280;26968;42.686;23.352;2022-09-09T12:00:48;95041.44;;;24.65;43.21
41234;BME280;26968;42.686;23.352;2022-09-09T12:04:26;95325.84;;;26.77;42.50
41234;BME280;26968;42.686;23.352;2022-09-09T12:06:29;95330.66;;;26.91;42.09
41234;BME280;26968;42.686;23.352;2022-09-09T12:09:09;95074.97;;;25.69;41.75
41234;BME280;26968;42.686;23.352;2022-09-09T12:11:41;95286.41;;;27.45;40.51
41234;BME280;26968;42.686;23.352;2022-09-09T12:14:37;95318.72;;;28.08;39.96
41234;BME280;26968;42.686;23.352;2022-09-09T12:19:40;95091.34;;;27.19;39.37
41234;BME280;26968;42.686;23.352;2022-09-09T12:22:37;95305.78;;;28.85;39.08
41234;BME280;26968;42.686;23.352;2022-09-09T12:30:34;94990.28;;;27.31;38.17
41234;BME280;26968;42.686;23.352;2022-09-09T12:33:10;95237.56;;;29.06;37.69
41234;BME280;26968;42.686;23.352;2022-09-09T12:35:38;95063.66;;;28.39;37.43
41234;BME280;26968;42.686;23.352;2022-09-09T12:38:06;94975.63;;;28.31;36.70
41234;BME280;26968;42.686;23.352;2022-09-09T12:40:36;95281.41;;;30.39;36.27
41234;BME280;26968;42.686;23.352;2022-09-09T12:43:17;95198.41;;;29.90;36.50
41234;BME280;26968;42.686;23.352;2022-09-09T12:45:43;95218.28;;;30.02;36.68
41234;BME280;26968;42.686;23.352;2022-09-09T12:48:10;95280.09;;;29.49;37.64
41234;BME280;26968;42.686;23.352;2022-09-09T12:50:51;95052.78;;;28.28;36.97
41234;BME280;26968;42.686;23.352;2022-09-09T12:55:51;95194.66;;;29.13;37.33
41234;BME280;26968;42.686;23.352;2022-09-09T12:58:18;95227.41;;;29.28;38.16
41234;BME280;26968;42.686;23.352;2022-09-09T13:00:55;94974.81;;;27.71;38.07
41234;BME280;26968;42.686;23.352;2022-09-09T13:03:23;95164.63;;;28.92;38.04
41234;BME280;26968;42.686;23.352;2022-09-09T13:05:49;94944.47;;;27.61;37.85
41234;BME280;26968;42.686;23.352;2022-09-09T13:08:16;95218.44;;;29.52;37.51
41234;BME280;26968;42.686;23.352;2022-09-09T13:13:26;95172.03;;;28.92;38.70
41234;BME280;26968;42.686;23.352;2022-09-09T13:15:58;95216.88;;;29.19;38.46
41234;BME280;26968;42.686;23.352;2022-09-09T13:18:28;95016.53;;;28.31;37.99
41234;BME280;26968;42.686;23.352;2022-09-09T13:20:54;95253.88;;;29.95;37.74
41234;BME280;26968;42.686;23.352;2022-09-09T13:23:21;95001.72;;;28.36;37.84
41234;BME280;26968;42.686;23.352;2022-09-09T13:25:58;95202.41;;;29.58;37.71
41234;BME280;26968;42.686;23.352;2022-09-09T13:28:29;94833.53;;;27.34;37.90
41234;BME280;26968;42.686;23.352;2022-09-09T13:31:02;95230.44;;;29.79;38.15
41234;BME280;26968;42.686;23.352;2022-09-09T13:33:36;95178.59;;;29.58;37.91
41234;BME280;26968;42.686;23.352;2022-09-09T13:36:07;95231.22;;;29.76;37.88
41234;BME280;26968;42.686;23.352;2022-09-09T13:41:20;95164.22;;;29.18;38.61
41234;BME280;26968;42.686;23.352;2022-09-09T13:43:47;95182.94;;;29.09;38.04
41234;BME280;26968;42.686;23.352;2022-09-09T13:48:59;95180.19;;;28.63;39.52
41234;BME280;26968;42.686;23.352;2022-09-09T13:51:40;95105.28;;;28.08;40.70
41234;BME280;26968;42.686;23.352;2022-09-09T13:54:09;95088.19;;;28.07;42.47
41234;BME280;26968;42.686;23.352;2022-09-09T13:56:36;95214.94;;;29.02;43.04
41234;BME280;26968;42.686;23.352;2022-09-09T13:59:04;95203.63;;;28.96;42.26
41234;BME280;26968;42.686;23.352;2022-09-09T14:01:29;94959.25;;;27.60;41.72
41234;BME280;26968;42.686;23.352;2022-09-09T14:03:58;94961.97;;;27.71;40.77
41234;BME280;26968;42.686;23.352;2022-09-09T14:06:24;95133.41;;;29.07;40.13
41234;BME280;26968;42.686;23.352;2022-09-09T14:08:50;95173.50;;;29.67;39.90
41234;BME280;26968;42.686;23.352;2022-09-09T14:11:16;94939.75;;;28.40;39.46
41234;BME280;26968;42.686;23.352;2022-09-09T14:13:42;95081.13;;;29.20;38.75
41234;BME280;26968;42.686;23.352;2022-09-09T14:16:22;94772.47;;;27.59;38.34
41234;BME280;26968;42.686;23.352;2022-09-09T14:18:47;95134.53;;;30.29;37.71
41234;BME280;26968;42.686;23.352;2022-09-09T14:21:13;95004.97;;;29.43;37.15
41234;BME280;26968;42.686;23.352;2022-09-09T14:23:40;94908.47;;;28.87;37.32
41234;BME280;26968;42.686;23.352;2022-09-09T14:26:12;94976.53;;;29.26;36.88
41234;BME280;26968;42.686;23.352;2022-09-09T14:29:07;95192.97;;;30.63;37.55
41234;BME280;26968;42.686;23.352;2022-09-09T14:31:33;94980.00;;;29.41;37.06
41234;BME280;26968;42.686;23.352;2022-09-09T14:37:17;94697.78;;;27.32;37.22
41234;BME280;26968;42.686;23.352;2022-09-09T14:40:24;95002.78;;;29.06;37.86
41234;BME280;26968;42.686;23.352;2022-09-09T14:42:59;94900.47;;;28.20;37.82
41234;BME280;26968;42.686;23.352;2022-09-09T14:45:24;94693.13;;;26.62;38.72
41234;BME280;26968;42.686;23.352;2022-09-09T14:47:51;94937.47;;;28.07;38.75
41234;BME280;26968;42.686;23.352;2022-09-09T14:50:24;94670.47;;;26.11;39.04
41234;BME280;26968;42.686;23.352;2022-09-09T14:52:50;94746.28;;;26.41;39.42
41234;BME280;26968;42.686;23.352;2022-09-09T14:55:18;94695.63;;;25.94;39.50
41234;BME280;26968;42.686;23.352;2022-09-09T14:57:44;95198.91;;;28.72;40.76
41234;BME280;26968;42.686;23.352;2022-09-09T15:00:11;94996.59;;;27.53;40.88
41234;BME280;26968;42.686;23.352;2022-09-09T15:02:37;94688.41;;;25.44;41.38
41234;BME280;26968;42.686;23.352;2022-09-09T15:05:03;94944.94;;;26.70;42.00
41234;BME280;26968;42.686;23.352;2022-09-09T15:07:29;95124.69;;;27.85;41.71
41234;BME280;26968;42.686;23.352;2022-09-09T15:09:57;95202.19;;;27.87;42.95
41234;BME280;26968;42.686;23.352;2022-09-09T15:12:23;95081.78;;;26.81;42.82
41234;BME280;26968;42.686;23.352;2022-09-09T15:14:49;95021.47;;;26.17;43.24
41234;BME280;26968;42.686;23.352;2022-09-09T15:17:17;94594.53;;;23.49;42.80
41234;BME280;26968;42.686;23.352;2022-09-09T15:19:43;95124.41;;;26.66;43.90
41234;BME280;26968;42.686;23.352;2022-09-09T15:22:08;95182.63;;;26.99;43.85
41234;BME280;26968;42.686;23.352;2022-09-09T15:24:34;95130.88;;;26.92;43.82